createdAt,value
2018-07-02T00:00:50.237Z,99472.00
2018-07-02T00:03:20.601Z,99469.03
2018-07-02T00:06:01.991Z,99471.25
2018-07-02T00:08:32.148Z,99473.19
2018-07-02T00:11:02.378Z,99470.45
2018-07-02T00:13:34.289Z,99475.13
2018-07-02T00:16:07.334Z,99467.23
2018-07-02T00:18:38.883Z,99464.80
2018-07-02T00:21:09.980Z,99468.66
2018-07-02T00:23:40.705Z,99459.14
2018-07-02T00:26:11.107Z,99460.53
2018-07-02T00:28:41.821Z,99456.70
2018-07-02T00:31:12.277Z,99459.19
2018-07-02T00:33:43.199Z,99457.58
2018-07-02T00:36:13.583Z,99453.77
2018-07-02T00:38:44.293Z,99455.73
2018-07-02T00:41:15.050Z,99453.02
2018-07-02T00:43:45.574Z,99451.13
2018-07-02T00:46:15.867Z,99450.88
2018-07-02T00:48:46.281Z,99452.27
2018-07-02T00:51:16.796Z,99456.36
2018-07-02T00:53:46.735Z,99456.92
2018-07-02T00:56:17.083Z,99455.01
2018-07-02T00:58:47.490Z,99458.83
2018-07-02T01:01:18.466Z,99446.02
2018-07-02T01:03:48.895Z,99453.95
2018-07-02T01:06:19.466Z,99451.50
2018-07-02T01:08:49.623Z,99452.86
2018-07-02T01:11:20.091Z,99452.05
2018-07-02T01:13:51.386Z,99444.67
2018-07-02T01:16:21.922Z,99450.40
2018-07-02T01:18:52.192Z,99451.79
2018-07-02T01:21:22.494Z,99450.71
2018-07-02T01:23:53.517Z,99451.27
2018-07-02T01:26:23.744Z,99449.11
2018-07-02T01:28:54.736Z,99442.58
2018-07-02T01:31:25.433Z,99439.57
2018-07-02T01:33:55.503Z,99441.22
2018-07-02T01:36:26.270Z,99440.95
2018-07-02T01:39:03.271Z,99437.14
2018-07-02T01:41:33.159Z,99439.89
2018-07-02T01:44:03.608Z,99439.35
2018-07-02T01:46:34.378Z,99441.00
2018-07-02T01:49:04.371Z,99441.84
2018-07-02T01:51:34.573Z,99435.04
2018-07-02T01:54:04.767Z,99443.23
2018-07-02T01:56:35.401Z,99441.33
2018-07-02T01:59:05.643Z,99439.42
2018-07-02T02:01:36.033Z,99427.71
2018-07-02T02:04:06.590Z,99439.44
2018-07-02T02:06:37.054Z,99435.10
2018-07-02T02:09:11.185Z,99432.94
2018-07-02T02:11:41.126Z,99428.56
2018-07-02T02:14:12.528Z,99440.03
2018-07-02T02:16:43.155Z,99437.56
2018-07-02T02:19:14.424Z,99430.20
2018-07-02T02:21:45.072Z,99436.47
2018-07-02T02:24:15.270Z,99418.77
2018-07-02T02:26:46.138Z,99425.33
2018-07-02T02:29:16.778Z,99434.02
2018-07-02T02:31:46.981Z,99425.03
2018-07-02T02:34:17.791Z,99432.40
2018-07-02T02:36:54.623Z,99432.12
2018-07-02T02:39:25.319Z,99428.59
2018-07-02T02:41:56.037Z,99432.14
2018-07-02T02:44:26.577Z,99428.58
2018-07-02T02:46:56.834Z,99423.15
2018-07-02T02:49:27.138Z,99427.23
2018-07-02T02:51:57.978Z,99416.34
2018-07-02T02:54:28.388Z,99414.41
2018-07-02T02:56:58.622Z,99417.14
2018-07-02T02:59:28.840Z,99421.52
2018-07-02T03:01:59.218Z,99417.41
2018-07-02T03:04:29.478Z,99422.58
2018-07-02T03:06:59.852Z,99416.60
2018-07-02T03:09:30.260Z,99426.12
2018-07-02T03:12:00.466Z,99416.31
2018-07-02T03:14:31.077Z,99420.14
2018-07-02T03:17:01.519Z,99422.58
2018-07-02T03:19:31.871Z,99424.22
2018-07-02T03:22:02.313Z,99421.78
2018-07-02T03:24:32.745Z,99416.33
2018-07-02T03:27:03.094Z,99416.59
2018-07-02T03:29:33.280Z,99420.15
2018-07-02T03:32:03.630Z,99415.24
2018-07-02T03:34:33.943Z,99416.88
2018-07-02T03:37:05.816Z,99414.69
2018-07-02T03:39:38.416Z,99411.42
2018-07-02T03:42:08.969Z,99401.61
2018-07-02T03:44:39.046Z,99418.25
2018-07-02T03:47:09.426Z,99417.43
2018-07-02T03:49:39.761Z,99420.97
2018-07-02T03:52:12.291Z,99419.30
2018-07-02T03:54:42.528Z,99418.50
2018-07-02T03:57:12.833Z,99419.03
2018-07-02T03:59:43.090Z,99426.41
2018-07-02T04:02:13.207Z,99428.58
2018-07-02T04:04:43.530Z,99420.69
2018-07-02T04:07:13.910Z,99422.33
2018-07-02T04:09:44.006Z,99423.95
2018-07-02T04:12:14.398Z,99425.58
2018-07-02T04:14:45.254Z,99419.30
2018-07-02T04:17:15.518Z,99428.03
2018-07-02T04:19:45.905Z,99424.47
2018-07-02T04:22:16.606Z,99419.02
2018-07-02T04:24:46.691Z,99423.36
2018-07-02T04:27:17.243Z,99412.73
2018-07-02T04:29:47.852Z,99418.98
2018-07-02T04:32:18.259Z,99416.23
2018-07-02T04:34:51.581Z,99416.20
2018-07-02T04:37:22.461Z,99418.61
2018-07-02T04:39:53.025Z,99421.84
2018-07-02T04:42:23.274Z,99417.48
2018-07-02T04:44:58.704Z,99407.04
2018-07-02T04:47:31.220Z,99407.28
2018-07-02T04:49:59.454Z,99416.23
2018-07-02T04:52:30.684Z,99420.34
2018-07-02T04:55:01.716Z,99418.95
2018-07-02T04:57:32.218Z,99416.23
2018-07-02T05:00:02.400Z,99413.20
2018-07-02T05:02:32.524Z,99407.98
2018-07-02T05:05:02.528Z,99417.55
2018-07-02T05:07:32.807Z,99416.18
2018-07-02T05:10:03.208Z,99414.27
2018-07-02T05:12:33.758Z,99417.55
2018-07-02T05:15:04.029Z,99415.64
2018-07-02T05:17:34.111Z,99417.80
2018-07-02T05:20:04.219Z,99415.64
2018-07-02T05:22:35.360Z,99415.89
2018-07-02T05:25:06.128Z,99422.14
2018-07-02T05:27:36.591Z,99419.39
2018-07-02T05:30:07.050Z,99424.55
2018-07-02T05:32:37.316Z,99428.35
2018-07-02T05:35:08.103Z,99426.16
2018-07-02T05:37:38.569Z,99433.54
2018-07-02T05:40:08.827Z,99426.11
2018-07-02T05:42:38.831Z,99427.73
2018-07-02T05:45:08.994Z,99431.80
2018-07-02T05:47:40.038Z,99426.03
2018-07-02T05:50:10.316Z,99428.73
2018-07-02T05:52:40.415Z,99427.61
2018-07-02T05:55:10.551Z,99419.41
2018-07-02T05:57:40.791Z,99416.10
2018-07-02T06:00:11.698Z,99417.98
2018-07-02T06:02:41.961Z,99422.02
2018-07-02T06:05:12.130Z,99414.87
2018-07-02T06:07:42.314Z,99413.44
2018-07-02T06:10:12.377Z,99418.33
2018-07-02T06:12:42.597Z,99421.33
2018-07-02T06:15:12.908Z,99419.38
2018-07-02T06:17:42.915Z,99412.78
2018-07-02T06:20:13.371Z,99411.66
2018-07-02T06:22:43.659Z,99414.35
2018-07-02T06:25:13.652Z,99416.23
2018-07-02T06:27:43.972Z,99411.77
2018-07-02T06:30:14.662Z,99415.02
2018-07-02T06:32:45.141Z,99414.19
2018-07-02T06:35:15.270Z,99412.52
2018-07-02T06:37:45.386Z,99424.50
2018-07-02T06:40:15.558Z,99414.66
2018-07-02T06:42:45.524Z,99414.58
2018-07-02T06:45:15.641Z,99413.98
2018-07-02T06:47:45.867Z,99413.11
2018-07-02T06:50:15.802Z,99415.77
2018-07-02T06:52:45.787Z,99414.90
2018-07-02T06:55:16.098Z,99409.97
2018-07-02T06:57:46.104Z,99410.24
2018-07-02T07:00:16.500Z,99409.14
2018-07-02T07:02:46.590Z,99410.20
2018-07-02T07:05:16.992Z,99410.43
2018-07-02T07:07:47.413Z,99406.31
2018-07-02T07:10:18.406Z,99408.19
2018-07-02T07:12:48.762Z,99409.83
2018-07-02T07:15:18.658Z,99403.48
2018-07-02T07:17:48.910Z,99403.16
2018-07-02T07:20:19.419Z,99402.86
2018-07-02T07:23:57.985Z,99395.38
2018-07-02T07:26:28.676Z,99403.00
2018-07-02T07:28:58.788Z,99408.23
2018-07-02T07:31:29.271Z,99406.87
2018-07-02T07:33:59.390Z,99400.57
2018-07-02T07:36:29.435Z,99403.00
2018-07-02T07:38:59.487Z,99395.88
2018-07-02T07:41:29.563Z,99393.40
2018-07-02T07:43:59.855Z,99386.79
2018-07-02T07:46:30.190Z,99380.98
2018-07-02T07:49:00.467Z,99378.52
2018-07-02T07:51:30.844Z,99378.45
2018-07-02T07:54:00.951Z,99377.52
2018-07-02T07:56:30.963Z,99379.11
2018-07-02T07:59:01.401Z,99372.81
2018-07-02T08:01:31.497Z,99373.56
2018-07-02T08:04:02.058Z,99370.27
2018-07-02T08:06:32.263Z,99372.43
2018-07-02T08:09:02.480Z,99372.41
2018-07-02T08:11:33.245Z,99371.20
2018-07-02T08:14:03.315Z,99372.24
2018-07-02T08:16:33.503Z,99363.13
2018-07-02T08:19:03.934Z,99362.80
2018-07-02T08:21:34.189Z,99366.92
2018-07-02T08:24:04.181Z,99372.41
2018-07-02T08:26:34.408Z,99361.42
2018-07-02T08:29:04.778Z,99353.68
2018-07-02T08:31:35.057Z,99349.46
2018-07-02T08:34:05.180Z,99344.17
2018-07-02T08:36:35.455Z,99350.95
2018-07-02T08:39:10.505Z,99342.38
2018-07-02T08:41:42.867Z,99349.70
2018-07-02T08:44:13.722Z,99345.80
2018-07-02T08:46:45.234Z,99339.97
2018-07-02T08:49:16.859Z,99334.41
2018-07-02T08:51:47.536Z,99326.88
2018-07-02T08:54:19.226Z,99328.43
2018-07-02T08:56:49.363Z,99331.61
2018-07-02T08:59:19.432Z,99331.52
2018-07-02T09:01:49.460Z,99329.24
2018-07-02T09:04:19.684Z,99328.83
2018-07-02T09:06:50.035Z,99332.04
2018-07-02T09:09:20.376Z,99324.82
2018-07-02T09:11:51.124Z,99331.53
2018-07-02T09:14:21.327Z,99329.18
2018-07-02T09:16:51.604Z,99319.38
2018-07-02T09:19:21.527Z,99320.36
2018-07-02T09:21:52.668Z,99325.72
2018-07-02T09:24:22.777Z,99319.05
2018-07-02T09:26:52.933Z,99322.52
2018-07-02T09:29:23.166Z,99312.53
2018-07-02T09:31:53.357Z,99318.97
2018-07-02T09:34:23.363Z,99322.17
2018-07-02T09:36:53.685Z,99315.23
2018-07-02T09:39:24.207Z,99313.00
2018-07-02T09:41:54.440Z,99320.55
2018-07-02T09:44:24.680Z,99313.31
2018-07-02T09:46:54.933Z,99311.50
2018-07-02T09:49:25.050Z,99321.01
2018-07-02T09:51:56.127Z,99314.02
2018-07-02T09:54:26.332Z,99312.31
2018-07-02T09:56:56.621Z,99301.17
2018-07-02T09:59:26.785Z,99307.37
2018-07-02T10:01:57.457Z,99307.48
2018-07-02T10:04:33.372Z,99304.80
2018-07-02T10:07:03.438Z,99306.53
2018-07-02T10:09:33.854Z,99308.90
2018-07-02T10:12:04.163Z,99305.70
2018-07-02T10:14:34.500Z,99306.05
2018-07-02T10:17:04.508Z,99303.44
2018-07-02T10:19:34.741Z,99298.59
2018-07-02T10:22:04.764Z,99287.38
2018-07-02T10:24:36.708Z,99291.33
2018-07-02T10:27:06.680Z,99289.98
2018-07-02T10:29:36.617Z,99286.77
2018-07-02T10:32:06.618Z,99283.48
2018-07-02T10:34:36.847Z,99288.83
2018-07-02T10:37:06.895Z,99292.73
2018-07-02T10:39:37.189Z,99275.77
2018-07-02T10:42:07.327Z,99281.04
2018-07-02T10:44:37.596Z,99281.11
2018-07-02T10:47:07.725Z,99276.28
2018-07-02T10:49:38.443Z,99270.88
2018-07-02T10:52:08.614Z,99272.58
2018-07-02T10:54:39.943Z,99270.70
2018-07-02T10:57:10.142Z,99261.98
2018-07-02T10:59:40.399Z,99259.55
2018-07-02T11:02:10.699Z,99259.05
2018-07-02T11:04:41.377Z,99259.11
2018-07-02T11:07:11.738Z,99261.95
2018-07-02T11:09:41.908Z,99262.77
2018-07-02T11:12:12.243Z,99257.82
2018-07-02T11:14:42.667Z,99255.22
2018-07-02T11:17:13.173Z,99252.87
2018-07-02T11:19:43.966Z,99248.54
2018-07-02T11:22:14.169Z,99249.09
2018-07-02T11:24:44.577Z,99244.73
2018-07-02T11:27:14.951Z,99229.86
2018-07-02T11:29:45.125Z,99230.41
2018-07-02T11:32:15.267Z,99229.56
2018-07-02T11:34:45.839Z,99228.97
2018-07-02T11:37:16.903Z,99218.22
2018-07-02T11:39:47.302Z,99216.31
2018-07-02T11:42:18.345Z,99218.80
2018-07-02T11:44:48.702Z,99217.41
2018-07-02T11:47:18.852Z,99223.45
2018-07-02T11:49:49.052Z,99219.23
2018-07-02T11:52:19.426Z,99208.14
2018-07-02T11:54:49.847Z,99213.50
2018-07-02T11:57:20.504Z,99216.64
2018-07-02T11:59:50.770Z,99206.19
2018-07-02T12:02:21.169Z,99214.77
2018-07-02T12:04:51.491Z,99206.27
2018-07-02T12:07:21.919Z,99207.45
2018-07-02T12:09:52.042Z,99203.70
2018-07-02T12:12:22.491Z,99197.74
2018-07-02T12:14:52.958Z,99195.92
2018-07-02T12:17:23.215Z,99198.45
2018-07-02T12:19:53.389Z,99191.45
2018-07-02T12:22:23.695Z,99190.53
2018-07-02T12:24:54.141Z,99185.37
2018-07-02T12:27:24.168Z,99184.23
2018-07-02T12:29:54.711Z,99184.72
2018-07-02T12:32:24.768Z,99184.16
2018-07-02T12:34:55.116Z,99183.71
2018-07-02T12:37:25.252Z,99190.63
2018-07-02T12:39:55.611Z,99190.30
2018-07-02T12:42:25.656Z,99191.20
2018-07-02T12:44:55.870Z,99190.18
2018-07-02T12:47:26.139Z,99185.94
2018-07-02T12:49:56.247Z,99191.27
2018-07-02T12:52:26.345Z,99185.94
2018-07-02T12:54:56.418Z,99183.83
2018-07-02T12:57:26.687Z,99176.34
2018-07-02T12:59:56.813Z,99181.06
2018-07-02T13:02:26.862Z,99182.45
2018-07-02T13:04:57.104Z,99181.12
2018-07-02T13:07:27.483Z,99182.75
2018-07-02T13:09:57.535Z,99180.41
2018-07-02T13:12:27.480Z,99182.69
2018-07-02T13:14:57.889Z,99180.16
2018-07-02T13:17:28.037Z,99180.77
2018-07-02T13:19:57.874Z,99185.03
2018-07-02T13:22:28.076Z,99179.98
2018-07-02T13:24:58.408Z,99180.91
2018-07-02T13:27:29.034Z,99173.75
2018-07-02T13:29:59.063Z,99179.53
2018-07-02T13:32:29.186Z,99167.64
2018-07-02T13:34:59.358Z,99171.82
2018-07-02T13:37:29.498Z,99170.20
2018-07-02T13:39:59.647Z,99167.88
2018-07-02T13:42:29.896Z,99164.78
2018-07-02T13:45:00.080Z,99161.89
2018-07-02T13:47:30.241Z,99159.60
2018-07-02T13:50:00.494Z,99161.91
2018-07-02T13:52:30.537Z,99159.48
2018-07-02T13:55:00.576Z,99152.11
2018-07-02T13:57:31.081Z,99168.25
2018-07-02T14:00:01.416Z,99168.70
2018-07-02T14:02:31.918Z,99161.08
2018-07-02T14:05:01.924Z,99163.50
2018-07-02T14:07:32.326Z,99154.62
2018-07-02T14:10:02.723Z,99159.23
2018-07-02T14:12:33.019Z,99153.82
2018-07-02T14:15:03.289Z,99151.62
2018-07-02T14:17:34.141Z,99158.56
2018-07-02T14:20:05.373Z,99156.72
2018-07-02T14:22:35.817Z,99160.17
2018-07-02T14:25:06.310Z,99152.54
2018-07-02T14:27:36.471Z,99144.73
2018-07-02T14:30:07.124Z,99151.41
2018-07-02T14:32:37.718Z,99143.79
2018-07-02T14:35:08.761Z,99138.03
2018-07-02T14:37:39.154Z,99142.41
2018-07-02T14:40:09.658Z,99144.93
2018-07-02T14:42:39.674Z,99146.33
2018-07-02T14:45:09.629Z,99150.38
2018-07-02T14:47:39.726Z,99145.39
2018-07-02T14:50:09.830Z,99145.41
2018-07-02T14:52:39.752Z,99143.20
2018-07-02T14:55:09.926Z,99142.63
2018-07-02T14:57:40.171Z,99138.95
2018-07-02T15:00:10.319Z,99140.44
2018-07-02T15:02:40.577Z,99148.38
2018-07-02T15:05:10.712Z,99146.66
2018-07-02T15:07:41.281Z,99144.02
2018-07-02T15:10:11.277Z,99143.08
2018-07-02T15:12:41.430Z,99138.47
2018-07-02T15:15:11.639Z,99135.94
2018-07-02T15:17:41.866Z,99135.70
2018-07-02T15:20:11.987Z,99141.82
2018-07-02T15:22:42.013Z,99133.96
2018-07-02T15:25:12.417Z,99127.62
2018-07-02T15:27:42.855Z,99127.26
2018-07-02T15:30:13.098Z,99127.13
2018-07-02T15:32:43.287Z,99133.47
2018-07-02T15:35:13.480Z,99131.05
2018-07-02T15:37:43.518Z,99125.03
2018-07-02T15:40:19.096Z,99135.88
2018-07-02T15:42:49.093Z,99133.79
2018-07-02T15:45:20.998Z,99135.04
2018-07-02T15:47:51.074Z,99126.15
2018-07-02T15:50:21.265Z,99130.55
2018-07-02T15:52:52.018Z,99128.72
2018-07-02T15:55:21.842Z,99131.48
2018-07-02T15:57:52.693Z,99123.17
2018-07-02T16:00:23.124Z,99130.91
2018-07-02T16:02:53.427Z,99127.77
2018-07-02T16:05:24.418Z,99123.52
2018-07-02T16:07:54.512Z,99127.20
2018-07-02T16:10:24.647Z,99124.53
2018-07-02T16:12:54.955Z,99125.20
2018-07-02T16:15:25.171Z,99132.57
2018-07-02T16:17:55.446Z,99133.52
2018-07-02T16:20:25.632Z,99130.41
2018-07-02T16:22:55.833Z,99130.88
2018-07-02T16:28:01.780Z,99126.08
2018-07-02T16:30:32.092Z,99124.80
2018-07-02T16:33:02.463Z,99122.27
2018-07-02T16:35:32.473Z,99126.66
2018-07-02T16:38:03.012Z,99120.88
2018-07-02T16:40:33.346Z,99121.79
2018-07-02T16:43:03.976Z,99120.20
2018-07-02T16:45:34.090Z,99121.35
2018-07-02T16:48:04.356Z,99124.13
2018-07-02T16:50:34.697Z,99127.59
2018-07-02T16:53:05.580Z,99130.84
2018-07-02T16:55:35.938Z,99134.76
2018-07-02T16:58:06.558Z,99132.36
2018-07-02T17:00:36.593Z,99134.98
2018-07-02T17:03:08.548Z,99137.66
2018-07-02T17:05:39.079Z,99136.40
2018-07-02T17:08:09.033Z,99135.59
2018-07-02T17:10:39.226Z,99138.93
2018-07-02T17:13:09.356Z,99146.11
2018-07-02T17:15:39.649Z,99149.78
2018-07-02T17:18:09.915Z,99150.02
2018-07-02T17:20:46.575Z,99145.74
2018-07-02T17:23:16.853Z,99149.44
2018-07-02T17:25:47.344Z,99145.96
2018-07-02T17:28:17.735Z,99149.78
2018-07-02T17:30:48.009Z,99145.40
2018-07-02T17:33:18.109Z,99147.92
2018-07-02T17:35:48.815Z,99147.23
2018-07-02T17:38:19.244Z,99151.14
2018-07-02T17:40:49.308Z,99145.73
2018-07-02T17:43:19.554Z,99148.80
2018-07-02T17:45:49.884Z,99146.61
2018-07-02T17:48:20.264Z,99149.73
2018-07-02T17:50:50.398Z,99151.57
2018-07-02T17:53:20.629Z,99156.41
2018-07-02T17:55:50.727Z,99159.39
2018-07-02T17:58:20.916Z,99151.91
2018-07-02T18:00:51.170Z,99162.60
2018-07-02T18:03:21.612Z,99161.91
2018-07-02T18:05:51.654Z,99162.12
2018-07-02T18:08:21.686Z,99168.95
2018-07-02T18:10:52.243Z,99161.91
2018-07-02T18:13:22.584Z,99168.22
2018-07-02T18:15:53.772Z,99165.66
2018-07-02T18:18:23.935Z,99157.23
2018-07-02T18:20:54.216Z,99160.69
2018-07-02T18:23:24.342Z,99158.94
2018-07-02T18:25:54.616Z,99164.34
2018-07-02T18:28:24.867Z,99162.59
2018-07-02T18:30:55.134Z,99165.59
2018-07-02T18:33:25.294Z,99174.61
2018-07-02T18:35:55.749Z,99172.41
2018-07-02T18:38:26.099Z,99173.39
2018-07-02T18:40:56.360Z,99175.08
2018-07-02T18:43:26.397Z,99174.67
2018-07-02T18:45:56.464Z,99182.09
2018-07-02T18:48:26.542Z,99185.64
2018-07-02T18:50:56.965Z,99189.97
2018-07-02T18:53:27.578Z,99182.69
2018-07-02T18:55:58.103Z,99192.77
2018-07-02T18:58:28.529Z,99192.61
2018-07-02T19:00:58.794Z,99198.55
2018-07-02T19:03:29.042Z,99198.77
2018-07-02T19:05:59.416Z,99204.00
2018-07-02T19:08:29.625Z,99208.56
2018-07-02T19:10:59.442Z,99211.50
2018-07-02T19:13:29.612Z,99214.22
2018-07-02T19:15:59.618Z,99215.77
2018-07-02T19:18:30.125Z,99221.95
2018-07-02T19:21:00.523Z,99219.61
2018-07-02T19:23:30.536Z,99218.91
2018-07-02T19:26:00.674Z,99226.22
2018-07-02T19:28:31.564Z,99221.36
2018-07-02T19:31:01.830Z,99228.67
2018-07-02T19:33:32.054Z,99232.31
2018-07-02T19:36:02.314Z,99235.17
2018-07-02T19:38:32.951Z,99232.55
2018-07-02T19:41:03.660Z,99237.20
2018-07-02T19:43:37.124Z,99242.66
2018-07-02T19:46:07.658Z,99241.19
2018-07-02T19:48:37.899Z,99242.16
2018-07-02T19:51:07.940Z,99242.09
2018-07-02T19:53:38.640Z,99247.61
2018-07-02T19:56:08.984Z,99247.80
2018-07-02T19:58:38.960Z,99253.20
2018-07-02T20:01:09.461Z,99241.22
2018-07-02T20:03:39.647Z,99246.56
2018-07-02T20:06:10.056Z,99250.06
2018-07-02T20:08:42.326Z,99248.84
2018-07-02T20:11:12.554Z,99248.95
2018-07-02T20:13:42.941Z,99247.19
2018-07-02T20:16:13.554Z,99253.32
2018-07-02T20:18:43.821Z,99247.09
2018-07-02T20:21:14.462Z,99251.05
2018-07-02T20:23:45.424Z,99246.20
2018-07-02T20:26:16.254Z,99251.80
2018-07-02T20:28:46.297Z,99252.75
2018-07-02T20:31:16.584Z,99256.16
2018-07-02T20:33:47.112Z,99261.16
2018-07-02T20:36:17.908Z,99265.67
2018-07-02T20:38:51.273Z,99262.19
2018-07-02T20:41:21.758Z,99264.22
2018-07-02T20:43:52.316Z,99272.53
2018-07-02T20:46:22.539Z,99273.98
2018-07-02T20:48:52.863Z,99268.56
2018-07-02T20:51:23.124Z,99272.19
2018-07-02T20:53:53.815Z,99276.14
2018-07-02T20:56:24.639Z,99271.54
2018-07-02T20:58:55.513Z,99272.74
2018-07-02T21:01:26.320Z,99277.17
2018-07-02T21:03:56.780Z,99274.25
2018-07-02T21:06:27.318Z,99285.34
2018-07-02T21:08:57.453Z,99282.64
2018-07-02T21:11:34.583Z,99285.19
2018-07-02T21:14:05.484Z,99283.33
2018-07-02T21:16:36.259Z,99286.47
2018-07-02T21:19:06.680Z,99285.39
2018-07-02T21:21:36.990Z,99284.09
2018-07-02T21:24:07.660Z,99286.93
2018-07-02T21:26:41.047Z,99280.66
2018-07-02T21:29:11.468Z,99278.55
2018-07-02T21:31:48.979Z,99277.00
2018-07-02T21:34:19.199Z,99274.88
2018-07-02T21:36:49.245Z,99282.66
2018-07-02T21:39:19.392Z,99281.33
2018-07-02T21:41:49.625Z,99278.66
2018-07-02T21:44:19.594Z,99280.33
2018-07-02T21:46:49.689Z,99274.66
2018-07-02T21:49:19.860Z,99288.40
2018-07-02T21:51:50.008Z,99284.09
2018-07-02T21:54:20.174Z,99289.67
2018-07-02T21:56:50.207Z,99285.03
2018-07-02T21:59:20.252Z,99285.19
2018-07-02T22:01:50.547Z,99284.44
2018-07-02T22:04:20.493Z,99288.12
2018-07-02T22:06:50.613Z,99289.62
2018-07-02T22:09:20.680Z,99285.87
2018-07-02T22:11:50.732Z,99281.91
2018-07-02T22:14:21.438Z,99285.77
2018-07-02T22:16:51.179Z,99288.41
2018-07-02T22:19:21.309Z,99292.08
2018-07-02T22:21:51.526Z,99287.51
2018-07-02T22:24:21.555Z,99284.39
2018-07-02T22:26:51.699Z,99286.13
2018-07-02T22:29:21.594Z,99282.15
2018-07-02T22:31:51.675Z,99280.88
2018-07-02T22:34:21.503Z,99284.87
2018-07-02T22:36:51.878Z,99280.31
2018-07-02T22:39:22.104Z,99278.22
2018-07-02T22:41:52.197Z,99274.24
2018-07-02T22:44:22.308Z,99272.71
2018-07-02T22:46:52.307Z,99275.59
2018-07-02T22:49:27.982Z,99286.38
2018-07-02T22:51:58.558Z,99279.88
2018-07-02T22:54:28.872Z,99282.75
2018-07-02T22:57:03.292Z,99278.47
2018-07-02T22:59:33.911Z,99279.97
2018-07-02T23:02:04.297Z,99284.17
2018-07-02T23:04:34.638Z,99281.27
2018-07-02T23:07:06.288Z,99287.98
2018-07-02T23:09:36.819Z,99286.47
2018-07-02T23:12:07.607Z,99284.92
2018-07-02T23:14:37.676Z,99285.07
2018-07-02T23:17:08.502Z,99284.37
2018-07-02T23:19:38.707Z,99290.49
2018-07-02T23:22:09.214Z,99288.16
2018-07-02T23:24:39.125Z,99291.77
2018-07-02T23:27:08.962Z,99291.30
2018-07-02T23:29:39.286Z,99285.66
2018-07-02T23:32:09.195Z,99292.59
2018-07-02T23:34:39.857Z,99293.20
2018-07-02T23:37:10.082Z,99296.55
2018-07-02T23:39:40.196Z,99294.97
2018-07-02T23:42:10.722Z,99295.25
2018-07-02T23:44:40.638Z,99291.20
2018-07-02T23:47:10.852Z,99291.48
2018-07-02T23:49:40.714Z,99287.98
2018-07-02T23:52:11.010Z,99288.03
2018-07-02T23:54:40.926Z,99284.81
2018-07-02T23:57:11.134Z,99289.53
2018-07-02T23:59:41.271Z,99286.86
